sensor_id;sensor_type;location;lat;lon;timestamp;P1;durP1;ratioP1;P2;durP2;ratioP2
22172;SDS011;11252;50.596;17.648;2022-10-31T00:01:25;30.93;;;21.87;;
22172;SDS011;11252;50.596;17.648;2022-10-31T00:03:55;31.33;;;21.17;;
22172;SDS011;11252;50.596;17.648;2022-10-31T00:06:22;29.80;;;20.13;;
22172;SDS011;11252;50.596;17.648;2022-10-31T00:08:54;30.20;;;21.53;;
22172;SDS011;11252;50.596;17.648;2022-10-31T00:11:23;29.90;;;21.00;;
22172;SDS011;11252;50.596;17.648;2022-10-31T00:13:51;25.67;;;19.73;;
22172;SDS011;11252;50.596;17.648;2022-10-31T00:16:20;31.67;;;21.63;;
22172;SDS011;11252;50.596;17.648;2022-10-31T00:18:50;30.30;;;20.43;;
22172;SDS011;11252;50.596;17.648;2022-10-31T00:21:19;31.10;;;21.27;;
22172;SDS011;11252;50.596;17.648;2022-10-31T00:23:47;32.27;;;22.20;;
22172;SDS011;11252;50.596;17.648;2022-10-31T00:26:15;30.17;;;21.57;;
22172;SDS011;11252;50.596;17.648;2022-10-31T00:28:43;29.77;;;21.10;;
22172;SDS011;11252;50.596;17.648;2022-10-31T00:31:11;28.57;;;19.00;;
22172;SDS011;11252;50.596;17.648;2022-10-31T00:33:40;28.53;;;21.33;;
22172;SDS011;11252;50.596;17.648;2022-10-31T00:36:10;29.87;;;21.40;;
22172;SDS011;11252;50.596;17.648;2022-10-31T00:38:39;28.13;;;20.80;;
22172;SDS011;11252;50.596;17.648;2022-10-31T00:41:07;28.70;;;21.30;;
22172;SDS011;11252;50.596;17.648;2022-10-31T00:43:35;24.50;;;19.53;;
22172;SDS011;11252;50.596;17.648;2022-10-31T00:46:02;30.03;;;20.77;;
22172;SDS011;11252;50.596;17.648;2022-10-31T00:48:30;27.10;;;20.20;;
22172;SDS011;11252;50.596;17.648;2022-10-31T00:50:57;27.50;;;21.63;;
22172;SDS011;11252;50.596;17.648;2022-10-31T00:53:25;30.37;;;21.60;;
22172;SDS011;11252;50.596;17.648;2022-10-31T00:55:52;29.10;;;20.93;;
22172;SDS011;11252;50.596;17.648;2022-10-31T00:58:20;31.40;;;21.23;;
22172;SDS011;11252;50.596;17.648;2022-10-31T01:00:47;31.40;;;20.73;;
22172;SDS011;11252;50.596;17.648;2022-10-31T01:03:26;28.40;;;19.97;;
22172;SDS011;11252;50.596;17.648;2022-10-31T01:08:28;25.40;;;18.00;;
22172;SDS011;11252;50.596;17.648;2022-10-31T01:13:56;23.90;;;17.10;;
22172;SDS011;11252;50.596;17.648;2022-10-31T01:16:24;22.97;;;16.30;;
22172;SDS011;11252;50.596;17.648;2022-10-31T01:18:53;20.63;;;16.73;;
22172;SDS011;11252;50.596;17.648;2022-10-31T01:21:21;24.80;;;17.77;;
22172;SDS011;11252;50.596;17.648;2022-10-31T01:23:51;29.77;;;19.07;;
22172;SDS011;11252;50.596;17.648;2022-10-31T01:26:21;28.70;;;19.17;;
22172;SDS011;11252;50.596;17.648;2022-10-31T01:28:53;24.63;;;17.93;;
22172;SDS011;11252;50.596;17.648;2022-10-31T01:31:23;29.43;;;18.90;;
22172;SDS011;11252;50.596;17.648;2022-10-31T01:33:56;24.70;;;19.00;;
22172;SDS011;11252;50.596;17.648;2022-10-31T01:36:24;29.13;;;18.43;;
22172;SDS011;11252;50.596;17.648;2022-10-31T01:38:56;26.33;;;19.63;;
22172;SDS011;11252;50.596;17.648;2022-10-31T01:41:26;22.87;;;17.47;;
22172;SDS011;11252;50.596;17.648;2022-10-31T01:43:57;23.10;;;16.10;;
22172;SDS011;11252;50.596;17.648;2022-10-31T01:46:30;23.77;;;17.77;;
22172;SDS011;11252;50.596;17.648;2022-10-31T01:49:04;28.03;;;18.30;;
22172;SDS011;11252;50.596;17.648;2022-10-31T01:51:37;23.63;;;17.23;;
22172;SDS011;11252;50.596;17.648;2022-10-31T01:54:09;23.30;;;17.10;;
22172;SDS011;11252;50.596;17.648;2022-10-31T01:56:42;22.80;;;17.57;;
22172;SDS011;11252;50.596;17.648;2022-10-31T01:59:15;22.80;;;17.33;;
22172;SDS011;11252;50.596;17.648;2022-10-31T02:01:45;20.57;;;16.60;;
22172;SDS011;11252;50.596;17.648;2022-10-31T02:04:13;21.73;;;16.20;;
22172;SDS011;11252;50.596;17.648;2022-10-31T02:06:46;26.97;;;18.03;;
22172;SDS011;11252;50.596;17.648;2022-10-31T02:09:22;27.67;;;17.13;;
22172;SDS011;11252;50.596;17.648;2022-10-31T02:11:51;23.03;;;16.37;;
22172;SDS011;11252;50.596;17.648;2022-10-31T02:14:24;21.70;;;16.60;;
22172;SDS011;11252;50.596;17.648;2022-10-31T02:16:53;26.13;;;19.00;;
22172;SDS011;11252;50.596;17.648;2022-10-31T02:19:25;21.07;;;15.57;;
22172;SDS011;11252;50.596;17.648;2022-10-31T02:27:56;25.17;;;18.33;;
22172;SDS011;11252;50.596;17.648;2022-10-31T02:33:41;26.03;;;17.50;;
22172;SDS011;11252;50.596;17.648;2022-10-31T02:36:27;25.47;;;17.07;;
22172;SDS011;11252;50.596;17.648;2022-10-31T02:42:13;24.87;;;16.70;;
22172;SDS011;11252;50.596;17.648;2022-10-31T02:44:45;24.83;;;17.20;;
22172;SDS011;11252;50.596;17.648;2022-10-31T02:47:26;28.17;;;17.63;;
22172;SDS011;11252;50.596;17.648;2022-10-31T02:52:38;26.70;;;18.63;;
22172;SDS011;11252;50.596;17.648;2022-10-31T02:55:40;26.53;;;18.67;;
22172;SDS011;11252;50.596;17.648;2022-10-31T02:58:01;25.03;;;17.53;;
22172;SDS011;11252;50.596;17.648;2022-10-31T03:01:31;25.27;;;18.30;;
22172;SDS011;11252;50.596;17.648;2022-10-31T03:11:56;31.97;;;21.10;;
22172;SDS011;11252;50.596;17.648;2022-10-31T03:14:48;32.73;;;20.53;;
22172;SDS011;11252;50.596;17.648;2022-10-31T03:17:42;28.90;;;19.47;;
22172;SDS011;11252;50.596;17.648;2022-10-31T03:20:27;25.17;;;19.00;;
22172;SDS011;11252;50.596;17.648;2022-10-31T03:23:02;27.37;;;18.57;;
22172;SDS011;11252;50.596;17.648;2022-10-31T03:25:33;27.10;;;17.60;;
22172;SDS011;11252;50.596;17.648;2022-10-31T03:28:03;28.43;;;21.43;;
22172;SDS011;11252;50.596;17.648;2022-10-31T03:30:35;31.70;;;23.20;;
22172;SDS011;11252;50.596;17.648;2022-10-31T03:33:05;34.83;;;22.53;;
22172;SDS011;11252;50.596;17.648;2022-10-31T03:35:36;31.37;;;21.10;;
22172;SDS011;11252;50.596;17.648;2022-10-31T03:38:06;33.97;;;21.50;;
22172;SDS011;11252;50.596;17.648;2022-10-31T03:40:34;33.83;;;23.80;;
22172;SDS011;11252;50.596;17.648;2022-10-31T03:43:08;32.07;;;22.00;;
22172;SDS011;11252;50.596;17.648;2022-10-31T03:45:41;34.33;;;24.00;;
22172;SDS011;11252;50.596;17.648;2022-10-31T03:48:12;36.37;;;22.80;;
22172;SDS011;11252;50.596;17.648;2022-10-31T03:50:45;36.47;;;23.97;;
22172;SDS011;11252;50.596;17.648;2022-10-31T03:53:31;28.20;;;22.03;;
22172;SDS011;11252;50.596;17.648;2022-10-31T03:56:09;34.17;;;23.67;;
22172;SDS011;11252;50.596;17.648;2022-10-31T03:58:43;27.80;;;21.40;;
22172;SDS011;11252;50.596;17.648;2022-10-31T04:01:15;25.97;;;20.37;;
22172;SDS011;11252;50.596;17.648;2022-10-31T04:03:46;43.80;;;26.50;;
22172;SDS011;11252;50.596;17.648;2022-10-31T04:06:15;37.20;;;25.83;;
22172;SDS011;11252;50.596;17.648;2022-10-31T04:08:46;37.53;;;26.23;;
22172;SDS011;11252;50.596;17.648;2022-10-31T04:11:19;38.73;;;24.73;;
22172;SDS011;11252;50.596;17.648;2022-10-31T04:13:50;34.30;;;23.33;;
22172;SDS011;11252;50.596;17.648;2022-10-31T04:16:19;39.33;;;25.07;;
22172;SDS011;11252;50.596;17.648;2022-10-31T04:18:48;35.67;;;24.03;;
22172;SDS011;11252;50.596;17.648;2022-10-31T04:21:16;34.10;;;23.63;;
22172;SDS011;11252;50.596;17.648;2022-10-31T04:23:44;30.10;;;22.67;;
22172;SDS011;11252;50.596;17.648;2022-10-31T04:26:11;34.00;;;22.63;;
22172;SDS011;11252;50.596;17.648;2022-10-31T04:28:40;30.73;;;23.23;;
22172;SDS011;11252;50.596;17.648;2022-10-31T04:31:08;33.97;;;22.07;;
22172;SDS011;11252;50.596;17.648;2022-10-31T04:33:38;30.23;;;19.47;;
22172;SDS011;11252;50.596;17.648;2022-10-31T04:36:05;27.37;;;20.70;;
22172;SDS011;11252;50.596;17.648;2022-10-31T04:38:33;31.43;;;21.77;;
22172;SDS011;11252;50.596;17.648;2022-10-31T04:41:01;23.30;;;17.80;;
22172;SDS011;11252;50.596;17.648;2022-10-31T04:43:28;34.80;;;21.37;;
22172;SDS011;11252;50.596;17.648;2022-10-31T04:45:56;32.80;;;24.10;;
22172;SDS011;11252;50.596;17.648;2022-10-31T04:48:24;39.23;;;25.43;;
22172;SDS011;11252;50.596;17.648;2022-10-31T04:50:52;39.20;;;26.00;;
22172;SDS011;11252;50.596;17.648;2022-10-31T04:53:19;35.60;;;24.27;;
22172;SDS011;11252;50.596;17.648;2022-10-31T04:55:47;36.30;;;25.10;;
22172;SDS011;11252;50.596;17.648;2022-10-31T04:58:14;43.13;;;26.77;;
22172;SDS011;11252;50.596;17.648;2022-10-31T05:00:47;37.17;;;24.27;;
22172;SDS011;11252;50.596;17.648;2022-10-31T05:03:19;33.83;;;24.33;;
22172;SDS011;11252;50.596;17.648;2022-10-31T05:05:47;33.53;;;24.20;;
22172;SDS011;11252;50.596;17.648;2022-10-31T05:08:15;31.83;;;22.37;;
22172;SDS011;11252;50.596;17.648;2022-10-31T05:10:42;28.20;;;20.30;;
22172;SDS011;11252;50.596;17.648;2022-10-31T05:13:10;32.43;;;22.77;;
22172;SDS011;11252;50.596;17.648;2022-10-31T05:15:38;39.93;;;25.80;;
22172;SDS011;11252;50.596;17.648;2022-10-31T05:18:05;36.40;;;24.30;;
22172;SDS011;11252;50.596;17.648;2022-10-31T05:20:32;31.13;;;22.30;;
22172;SDS011;11252;50.596;17.648;2022-10-31T05:23:00;33.53;;;22.27;;
22172;SDS011;11252;50.596;17.648;2022-10-31T05:25:28;35.10;;;24.23;;
22172;SDS011;11252;50.596;17.648;2022-10-31T05:27:56;30.93;;;22.83;;
22172;SDS011;11252;50.596;17.648;2022-10-31T05:30:26;35.90;;;25.17;;
22172;SDS011;11252;50.596;17.648;2022-10-31T05:32:55;33.00;;;23.90;;
22172;SDS011;11252;50.596;17.648;2022-10-31T05:35:27;40.00;;;25.50;;
22172;SDS011;11252;50.596;17.648;2022-10-31T05:37:56;43.70;;;24.90;;
22172;SDS011;11252;50.596;17.648;2022-10-31T05:40:25;35.73;;;25.37;;
22172;SDS011;11252;50.596;17.648;2022-10-31T05:42:54;32.77;;;23.70;;
22172;SDS011;11252;50.596;17.648;2022-10-31T05:45:23;36.40;;;24.80;;
22172;SDS011;11252;50.596;17.648;2022-10-31T05:47:55;37.00;;;25.13;;
22172;SDS011;11252;50.596;17.648;2022-10-31T05:50:25;34.90;;;25.87;;
22172;SDS011;11252;50.596;17.648;2022-10-31T05:52:58;39.57;;;26.00;;
22172;SDS011;11252;50.596;17.648;2022-10-31T05:55:27;40.87;;;27.93;;
22172;SDS011;11252;50.596;17.648;2022-10-31T05:57:56;44.03;;;27.63;;
22172;SDS011;11252;50.596;17.648;2022-10-31T06:00:24;43.87;;;27.70;;
22172;SDS011;11252;50.596;17.648;2022-10-31T06:03:03;39.73;;;26.87;;
22172;SDS011;11252;50.596;17.648;2022-10-31T06:05:32;40.73;;;25.77;;
22172;SDS011;11252;50.596;17.648;2022-10-31T06:08:00;45.43;;;25.87;;
22172;SDS011;11252;50.596;17.648;2022-10-31T06:10:28;36.40;;;25.73;;
22172;SDS011;11252;50.596;17.648;2022-10-31T06:12:55;39.70;;;27.17;;
22172;SDS011;11252;50.596;17.648;2022-10-31T06:15:23;35.27;;;24.60;;
22172;SDS011;11252;50.596;17.648;2022-10-31T06:17:57;37.50;;;25.70;;
22172;SDS011;11252;50.596;17.648;2022-10-31T06:20:29;38.00;;;25.83;;
22172;SDS011;11252;50.596;17.648;2022-10-31T06:22:57;36.03;;;26.70;;
22172;SDS011;11252;50.596;17.648;2022-10-31T06:25:25;89.77;;;47.97;;
22172;SDS011;11252;50.596;17.648;2022-10-31T06:27:53;176.87;;;90.63;;
22172;SDS011;11252;50.596;17.648;2022-10-31T06:30:20;182.70;;;96.10;;
22172;SDS011;11252;50.596;17.648;2022-10-31T06:32:49;138.10;;;84.57;;
22172;SDS011;11252;50.596;17.648;2022-10-31T06:35:17;94.13;;;58.27;;
22172;SDS011;11252;50.596;17.648;2022-10-31T06:37:54;59.13;;;37.50;;
22172;SDS011;11252;50.596;17.648;2022-10-31T06:40:22;46.23;;;30.47;;
22172;SDS011;11252;50.596;17.648;2022-10-31T06:42:59;42.33;;;27.03;;
22172;SDS011;11252;50.596;17.648;2022-10-31T06:45:27;39.33;;;25.43;;
22172;SDS011;11252;50.596;17.648;2022-10-31T06:47:55;34.37;;;26.93;;
22172;SDS011;11252;50.596;17.648;2022-10-31T06:50:43;38.73;;;26.13;;
22172;SDS011;11252;50.596;17.648;2022-10-31T06:53:10;39.23;;;27.10;;
22172;SDS011;11252;50.596;17.648;2022-10-31T06:55:39;48.13;;;31.63;;
22172;SDS011;11252;50.596;17.648;2022-10-31T06:58:08;53.40;;;36.77;;
22172;SDS011;11252;50.596;17.648;2022-10-31T07:00:36;42.17;;;26.87;;
22172;SDS011;11252;50.596;17.648;2022-10-31T07:03:05;40.73;;;27.00;;
22172;SDS011;11252;50.596;17.648;2022-10-31T07:05:34;41.27;;;25.73;;
22172;SDS011;11252;50.596;17.648;2022-10-31T07:08:02;35.70;;;24.13;;
22172;SDS011;11252;50.596;17.648;2022-10-31T07:10:33;34.33;;;22.47;;
22172;SDS011;11252;50.596;17.648;2022-10-31T07:13:08;33.03;;;23.80;;
22172;SDS011;11252;50.596;17.648;2022-10-31T07:15:39;33.73;;;25.07;;
22172;SDS011;11252;50.596;17.648;2022-10-31T07:18:09;43.90;;;25.90;;
22172;SDS011;11252;50.596;17.648;2022-10-31T07:20:38;41.83;;;24.83;;
22172;SDS011;11252;50.596;17.648;2022-10-31T07:23:05;35.73;;;21.83;;
22172;SDS011;11252;50.596;17.648;2022-10-31T07:25:32;49.73;;;31.53;;
22172;SDS011;11252;50.596;17.648;2022-10-31T07:28:00;32.00;;;20.73;;
22172;SDS011;11252;50.596;17.648;2022-10-31T07:30:28;26.20;;;17.37;;
22172;SDS011;11252;50.596;17.648;2022-10-31T07:32:55;32.57;;;20.13;;
22172;SDS011;11252;50.596;17.648;2022-10-31T07:35:23;37.87;;;27.07;;
22172;SDS011;11252;50.596;17.648;2022-10-31T07:37:52;41.90;;;31.83;;
22172;SDS011;11252;50.596;17.648;2022-10-31T07:40:21;40.60;;;30.27;;
22172;SDS011;11252;50.596;17.648;2022-10-31T07:42:50;39.30;;;25.90;;
22172;SDS011;11252;50.596;17.648;2022-10-31T07:45:19;28.57;;;21.33;;
22172;SDS011;11252;50.596;17.648;2022-10-31T07:47:48;32.30;;;19.77;;
22172;SDS011;11252;50.596;17.648;2022-10-31T07:50:20;23.70;;;15.97;;
22172;SDS011;11252;50.596;17.648;2022-10-31T07:52:57;26.10;;;15.93;;
22172;SDS011;11252;50.596;17.648;2022-10-31T07:55:31;26.20;;;15.63;;
22172;SDS011;11252;50.596;17.648;2022-10-31T07:58:04;26.90;;;16.87;;
22172;SDS011;11252;50.596;17.648;2022-10-31T08:00:42;24.37;;;15.17;;
22172;SDS011;11252;50.596;17.648;2022-10-31T08:03:12;27.43;;;15.03;;
22172;SDS011;11252;50.596;17.648;2022-10-31T08:05:41;25.00;;;15.03;;
22172;SDS011;11252;50.596;17.648;2022-10-31T08:08:08;27.73;;;15.27;;
22172;SDS011;11252;50.596;17.648;2022-10-31T08:10:36;26.30;;;15.17;;
22172;SDS011;11252;50.596;17.648;2022-10-31T08:13:05;22.13;;;14.03;;
22172;SDS011;11252;50.596;17.648;2022-10-31T08:15:34;21.53;;;13.87;;
22172;SDS011;11252;50.596;17.648;2022-10-31T08:18:05;31.13;;;18.90;;
22172;SDS011;11252;50.596;17.648;2022-10-31T08:20:33;22.00;;;13.90;;
22172;SDS011;11252;50.596;17.648;2022-10-31T08:23:02;20.03;;;12.37;;
22172;SDS011;11252;50.596;17.648;2022-10-31T08:25:31;20.07;;;12.33;;
22172;SDS011;11252;50.596;17.648;2022-10-31T08:28:04;19.57;;;11.13;;
22172;SDS011;11252;50.596;17.648;2022-10-31T08:30:33;19.77;;;11.60;;
22172;SDS011;11252;50.596;17.648;2022-10-31T08:33:06;24.37;;;14.47;;
22172;SDS011;11252;50.596;17.648;2022-10-31T08:35:41;21.40;;;12.53;;
22172;SDS011;11252;50.596;17.648;2022-10-31T08:38:09;22.27;;;11.97;;
22172;SDS011;11252;50.596;17.648;2022-10-31T08:40:38;16.20;;;10.47;;
22172;SDS011;11252;50.596;17.648;2022-10-31T08:43:13;19.13;;;10.70;;
22172;SDS011;11252;50.596;17.648;2022-10-31T08:45:42;16.80;;;9.47;;
22172;SDS011;11252;50.596;17.648;2022-10-31T08:48:11;19.40;;;9.45;;
22172;SDS011;11252;50.596;17.648;2022-10-31T08:50:41;17.30;;;9.85;;
22172;SDS011;11252;50.596;17.648;2022-10-31T08:53:17;17.90;;;9.50;;
22172;SDS011;11252;50.596;17.648;2022-10-31T08:55:45;12.15;;;8.13;;
22172;SDS011;11252;50.596;17.648;2022-10-31T08:58:14;13.98;;;8.02;;
22172;SDS011;11252;50.596;17.648;2022-10-31T09:00:43;15.02;;;8.23;;
22172;SDS011;11252;50.596;17.648;2022-10-31T09:03:13;10.90;;;7.82;;
22172;SDS011;11252;50.596;17.648;2022-10-31T09:05:42;19.92;;;7.70;;
22172;SDS011;11252;50.596;17.648;2022-10-31T09:08:10;11.75;;;6.00;;
22172;SDS011;11252;50.596;17.648;2022-10-31T09:10:42;9.00;;;5.43;;
22172;SDS011;11252;50.596;17.648;2022-10-31T09:13:14;8.35;;;4.50;;
22172;SDS011;11252;50.596;17.648;2022-10-31T09:15:44;11.32;;;5.80;;
22172;SDS011;11252;50.596;17.648;2022-10-31T09:18:15;9.30;;;6.13;;
22172;SDS011;11252;50.596;17.648;2022-10-31T09:20:44;9.70;;;5.72;;
22172;SDS011;11252;50.596;17.648;2022-10-31T09:23:13;9.27;;;4.60;;
22172;SDS011;11252;50.596;17.648;2022-10-31T09:25:43;18.45;;;5.15;;
22172;SDS011;11252;50.596;17.648;2022-10-31T09:28:17;12.82;;;4.68;;
22172;SDS011;11252;50.596;17.648;2022-10-31T09:30:51;9.75;;;4.32;;
22172;SDS011;11252;50.596;17.648;2022-10-31T09:33:20;6.93;;;3.80;;
22172;SDS011;11252;50.596;17.648;2022-10-31T09:35:49;7.97;;;3.47;;
22172;SDS011;11252;50.596;17.648;2022-10-31T09:38:17;12.35;;;3.90;;
22172;SDS011;11252;50.596;17.648;2022-10-31T09:40:48;8.73;;;3.30;;
22172;SDS011;11252;50.596;17.648;2022-10-31T09:43:30;7.35;;;3.10;;
22172;SDS011;11252;50.596;17.648;2022-10-31T09:51:41;7.40;;;3.22;;
22172;SDS011;11252;50.596;17.648;2022-10-31T09:54:30;9.07;;;2.88;;
22172;SDS011;11252;50.596;17.648;2022-10-31T09:57:02;10.52;;;3.33;;
22172;SDS011;11252;50.596;17.648;2022-10-31T09:59:31;5.50;;;3.15;;
22172;SDS011;11252;50.596;17.648;2022-10-31T10:07:48;8.52;;;2.85;;
22172;SDS011;11252;50.596;17.648;2022-10-31T10:10:49;9.40;;;3.47;;
22172;SDS011;11252;50.596;17.648;2022-10-31T10:16:25;6.22;;;3.03;;
22172;SDS011;11252;50.596;17.648;2022-10-31T10:27:39;7.25;;;3.17;;
22172;SDS011;11252;50.596;17.648;2022-10-31T10:33:10;6.57;;;3.00;;
22172;SDS011;11252;50.596;17.648;2022-10-31T10:35:59;9.05;;;2.95;;
22172;SDS011;11252;50.596;17.648;2022-10-31T10:41:07;8.40;;;2.97;;
22172;SDS011;11252;50.596;17.648;2022-10-31T10:43:40;11.73;;;3.70;;
22172;SDS011;11252;50.596;17.648;2022-10-31T10:51:59;10.55;;;3.08;;
22172;SDS011;11252;50.596;17.648;2022-10-31T10:54:54;10.05;;;3.22;;
22172;SDS011;11252;50.596;17.648;2022-10-31T11:00:18;9.55;;;3.42;;
22172;SDS011;11252;50.596;17.648;2022-10-31T11:02:54;13.68;;;3.60;;
22172;SDS011;11252;50.596;17.648;2022-10-31T11:08:03;9.98;;;3.92;;
22172;SDS011;11252;50.596;17.648;2022-10-31T11:10:31;7.88;;;3.78;;
22172;SDS011;11252;50.596;17.648;2022-10-31T11:13:05;10.05;;;3.30;;
22172;SDS011;11252;50.596;17.648;2022-10-31T11:18:20;11.93;;;3.53;;
22172;SDS011;11252;50.596;17.648;2022-10-31T11:20:52;9.90;;;3.63;;
22172;SDS011;11252;50.596;17.648;2022-10-31T11:23:25;16.73;;;5.30;;
22172;SDS011;11252;50.596;17.648;2022-10-31T11:28:27;14.35;;;4.43;;
22172;SDS011;11252;50.596;17.648;2022-10-31T11:31:11;13.25;;;4.45;;
22172;SDS011;11252;50.596;17.648;2022-10-31T11:33:45;9.88;;;3.95;;
22172;SDS011;11252;50.596;17.648;2022-10-31T11:36:23;21.88;;;5.38;;
22172;SDS011;11252;50.596;17.648;2022-10-31T11:38:52;12.30;;;5.50;;
22172;SDS011;11252;50.596;17.648;2022-10-31T11:41:33;12.55;;;4.18;;
22172;SDS011;11252;50.596;17.648;2022-10-31T11:44:09;12.45;;;7.75;;
22172;SDS011;11252;50.596;17.648;2022-10-31T11:46:57;14.70;;;8.48;;
22172;SDS011;11252;50.596;17.648;2022-10-31T11:49:39;7.60;;;4.40;;
22172;SDS011;11252;50.596;17.648;2022-10-31T11:52:19;7.85;;;3.42;;
22172;SDS011;11252;50.596;17.648;2022-10-31T11:54:59;8.10;;;3.47;;
22172;SDS011;11252;50.596;17.648;2022-10-31T11:57:32;10.43;;;3.88;;
22172;SDS011;11252;50.596;17.648;2022-10-31T12:05:43;9.75;;;3.60;;
22172;SDS011;11252;50.596;17.648;2022-10-31T12:08:14;10.65;;;3.63;;
22172;SDS011;11252;50.596;17.648;2022-10-31T12:13:37;13.85;;;3.92;;
22172;SDS011;11252;50.596;17.648;2022-10-31T12:30:20;10.77;;;5.47;;
22172;SDS011;11252;50.596;17.648;2022-10-31T12:45:18;9.98;;;3.50;;
22172;SDS011;11252;50.596;17.648;2022-10-31T12:53:47;8.70;;;3.38;;
22172;SDS011;11252;50.596;17.648;2022-10-31T12:59:54;11.77;;;3.33;;
22172;SDS011;11252;50.596;17.648;2022-10-31T13:02:30;8.48;;;3.22;;
22172;SDS011;11252;50.596;17.648;2022-10-31T13:08:11;12.02;;;3.45;;
22172;SDS011;11252;50.596;17.648;2022-10-31T13:13:52;13.35;;;2.88;;
22172;SDS011;11252;50.596;17.648;2022-10-31T13:16:48;12.00;;;3.92;;
22172;SDS011;11252;50.596;17.648;2022-10-31T13:19:21;7.47;;;3.10;;
22172;SDS011;11252;50.596;17.648;2022-10-31T13:22:03;6.80;;;3.10;;
22172;SDS011;11252;50.596;17.648;2022-10-31T13:24:36;11.48;;;3.25;;
22172;SDS011;11252;50.596;17.648;2022-10-31T13:27:26;9.13;;;3.13;;
22172;SDS011;11252;50.596;17.648;2022-10-31T13:30:04;11.30;;;3.38;;
22172;SDS011;11252;50.596;17.648;2022-10-31T13:40:50;11.32;;;3.40;;
22172;SDS011;11252;50.596;17.648;2022-10-31T13:45:54;14.13;;;5.70;;
22172;SDS011;11252;50.596;17.648;2022-10-31T13:51:02;8.65;;;4.22;;
22172;SDS011;11252;50.596;17.648;2022-10-31T13:53:35;11.02;;;3.58;;
22172;SDS011;11252;50.596;17.648;2022-10-31T14:01:31;9.05;;;3.33;;
22172;SDS011;11252;50.596;17.648;2022-10-31T14:04:07;13.05;;;3.13;;
22172;SDS011;11252;50.596;17.648;2022-10-31T14:17:46;15.77;;;4.85;;
22172;SDS011;11252;50.596;17.648;2022-10-31T14:22:42;22.17;;;9.40;;
22172;SDS011;11252;50.596;17.648;2022-10-31T14:27:57;37.00;;;20.52;;
22172;SDS011;11252;50.596;17.648;2022-10-31T14:30:26;25.42;;;11.52;;
22172;SDS011;11252;50.596;17.648;2022-10-31T14:32:57;20.67;;;11.73;;
22172;SDS011;11252;50.596;17.648;2022-10-31T14:44:21;26.05;;;11.68;;
22172;SDS011;11252;50.596;17.648;2022-10-31T14:47:28;21.60;;;10.55;;
22172;SDS011;11252;50.596;17.648;2022-10-31T14:53:09;22.88;;;10.45;;
22172;SDS011;11252;50.596;17.648;2022-10-31T14:55:52;24.70;;;9.43;;
22172;SDS011;11252;50.596;17.648;2022-10-31T14:58:22;17.77;;;9.40;;
22172;SDS011;11252;50.596;17.648;2022-10-31T15:01:07;17.60;;;8.70;;
22172;SDS011;11252;50.596;17.648;2022-10-31T15:03:36;19.52;;;9.68;;
22172;SDS011;11252;50.596;17.648;2022-10-31T15:06:14;23.55;;;11.73;;
22172;SDS011;11252;50.596;17.648;2022-10-31T15:11:15;21.45;;;11.98;;
22172;SDS011;11252;50.596;17.648;2022-10-31T15:13:52;28.45;;;13.15;;
22172;SDS011;11252;50.596;17.648;2022-10-31T15:16:24;23.33;;;10.32;;
22172;SDS011;11252;50.596;17.648;2022-10-31T15:19:04;23.00;;;10.02;;
22172;SDS011;11252;50.596;17.648;2022-10-31T15:21:34;18.75;;;10.13;;
22172;SDS011;11252;50.596;17.648;2022-10-31T15:24:10;19.10;;;9.35;;
22172;SDS011;11252;50.596;17.648;2022-10-31T15:26:44;22.02;;;9.10;;
22172;SDS011;11252;50.596;17.648;2022-10-31T15:29:15;20.90;;;9.95;;
22172;SDS011;11252;50.596;17.648;2022-10-31T15:34:20;25.10;;;9.13;;
22172;SDS011;11252;50.596;17.648;2022-10-31T15:37:01;22.48;;;8.90;;
22172;SDS011;11252;50.596;17.648;2022-10-31T15:39:28;15.55;;;9.30;;
22172;SDS011;11252;50.596;17.648;2022-10-31T15:41:56;19.70;;;9.80;;
22172;SDS011;11252;50.596;17.648;2022-10-31T15:46:59;37.93;;;26.13;;
22172;SDS011;11252;50.596;17.648;2022-10-31T15:55:00;47.40;;;29.73;;
22172;SDS011;11252;50.596;17.648;2022-10-31T15:57:45;60.53;;;33.57;;
22172;SDS011;11252;50.596;17.648;2022-10-31T16:05:49;23.83;;;12.90;;
22172;SDS011;11252;50.596;17.648;2022-10-31T16:08:26;22.93;;;9.87;;
22172;SDS011;11252;50.596;17.648;2022-10-31T16:13:36;13.53;;;6.60;;
22172;SDS011;11252;50.596;17.648;2022-10-31T16:16:14;16.40;;;7.10;;
22172;SDS011;11252;50.596;17.648;2022-10-31T16:19:03;13.57;;;6.67;;
22172;SDS011;11252;50.596;17.648;2022-10-31T16:21:36;15.93;;;6.93;;
22172;SDS011;11252;50.596;17.648;2022-10-31T16:24:18;15.30;;;7.80;;
22172;SDS011;11252;50.596;17.648;2022-10-31T16:27:02;17.87;;;8.40;;
22172;SDS011;11252;50.596;17.648;2022-10-31T16:29:33;19.63;;;7.63;;
22172;SDS011;11252;50.596;17.648;2022-10-31T16:32:00;19.63;;;10.13;;
22172;SDS011;11252;50.596;17.648;2022-10-31T16:34:28;58.10;;;40.50;;
22172;SDS011;11252;50.596;17.648;2022-10-31T16:36:56;26.37;;;15.27;;
22172;SDS011;11252;50.596;17.648;2022-10-31T16:39:25;29.40;;;19.20;;
22172;SDS011;11252;50.596;17.648;2022-10-31T16:41:54;29.83;;;18.87;;
22172;SDS011;11252;50.596;17.648;2022-10-31T16:44:24;21.33;;;11.73;;
22172;SDS011;11252;50.596;17.648;2022-10-31T16:47:07;28.77;;;20.80;;
22172;SDS011;11252;50.596;17.648;2022-10-31T16:49:34;20.17;;;11.53;;
22172;SDS011;11252;50.596;17.648;2022-10-31T16:52:02;30.33;;;20.63;;
22172;SDS011;11252;50.596;17.648;2022-10-31T16:54:30;25.37;;;12.73;;
22172;SDS011;11252;50.596;17.648;2022-10-31T16:56:57;14.83;;;11.43;;
22172;SDS011;11252;50.596;17.648;2022-10-31T16:59:26;34.73;;;22.23;;
22172;SDS011;11252;50.596;17.648;2022-10-31T17:01:54;33.87;;;20.27;;
22172;SDS011;11252;50.596;17.648;2022-10-31T17:04:22;40.17;;;24.17;;
22172;SDS011;11252;50.596;17.648;2022-10-31T17:06:51;41.07;;;26.93;;
22172;SDS011;11252;50.596;17.648;2022-10-31T17:09:19;52.70;;;33.33;;
22172;SDS011;11252;50.596;17.648;2022-10-31T17:11:47;87.93;;;54.00;;
22172;SDS011;11252;50.596;17.648;2022-10-31T17:14:18;107.87;;;68.50;;
22172;SDS011;11252;50.596;17.648;2022-10-31T17:16:46;69.30;;;42.70;;
22172;SDS011;11252;50.596;17.648;2022-10-31T17:19:13;73.97;;;47.13;;
22172;SDS011;11252;50.596;17.648;2022-10-31T17:21:41;101.07;;;62.53;;
22172;SDS011;11252;50.596;17.648;2022-10-31T17:24:12;100.70;;;63.47;;
22172;SDS011;11252;50.596;17.648;2022-10-31T17:26:41;86.10;;;53.37;;
22172;SDS011;11252;50.596;17.648;2022-10-31T17:29:09;85.63;;;53.03;;
22172;SDS011;11252;50.596;17.648;2022-10-31T17:31:37;70.47;;;41.77;;
22172;SDS011;11252;50.596;17.648;2022-10-31T17:34:05;54.63;;;35.10;;
22172;SDS011;11252;50.596;17.648;2022-10-31T17:36:34;31.90;;;17.20;;
22172;SDS011;11252;50.596;17.648;2022-10-31T17:39:02;55.57;;;31.47;;
22172;SDS011;11252;50.596;17.648;2022-10-31T17:41:31;63.93;;;37.10;;
22172;SDS011;11252;50.596;17.648;2022-10-31T17:43:58;68.93;;;36.10;;
22172;SDS011;11252;50.596;17.648;2022-10-31T17:46:26;83.53;;;43.57;;
22172;SDS011;11252;50.596;17.648;2022-10-31T17:48:55;113.13;;;61.23;;
22172;SDS011;11252;50.596;17.648;2022-10-31T17:51:23;125.43;;;69.03;;
22172;SDS011;11252;50.596;17.648;2022-10-31T17:53:51;158.77;;;82.07;;